Time;durP1;ratioP1;P1;durP2;ratioP2;P2;SDS_P1;SDS_P2;PMS_P1;PMS_P2;Temp;Humidity;BMP_temperature;BMP_pressure;BME280_temperature;BME280_humidity;BME280_pressure;Samples;Min_cycle;Max_cycle;Signal;HPM_P1;HPM_P2
2024/02/16 00:01:28;;;;;;;;;;;;;;;;;;5049129;28;19929;-72
2024/02/16 00:03:55;;;;;;;;;;;;;;;;;;5048394;28;19978;-72
2024/02/16 00:06:22;;;;;;;;;;;;;;;;;;5049027;28;19935;-72
2024/02/16 00:08:49;;;;;;;;;;;;;;;;;;5048713;28;19971;-73
2024/02/16 00:11:16;;;;;;;;;;;;;;;;;;5048714;28;19976;-72
2024/02/16 00:13:43;;;;;;;;;;;;;;;;;;5049235;28;20023;-72
2024/02/16 00:16:10;;;;;;;;;;;;;;;;;;5049434;28;20016;-72
2024/02/16 00:18:37;;;;;;;;;;;;;;;;;;5048711;28;19968;-72
2024/02/16 00:21:05;;;;;;;;;;;;;;;;;;5049260;28;19935;-73
2024/02/16 00:23:33;;;;;;;;;;;;;;;;;;5049321;28;19935;-72
2024/02/16 00:26:00;;;;;;;;;;;;;;;;;;5048550;28;20384;-73
2024/02/16 00:28:27;;;;;;;;;;;;;;;;;;5048108;28;20015;-72
2024/02/16 00:30:54;;;;;;;;;;;;;;;;;;5047621;28;20025;-72
2024/02/16 00:33:21;;;;;;;;;;;;;;;;;;5047163;28;20059;-72
2024/02/16 00:35:49;;;;;;;;;;;;;;;;;;5048961;28;19928;-72
2024/02/16 00:38:16;;;;;;;;;;;;;;;;;;5048960;28;20392;-72
2024/02/16 00:40:44;;;;;;;;;;;;;;;;;;5048653;28;19929;-72
2024/02/16 00:43:11;;;;;;;;;;;;;;;;;;5044852;28;19988;-72
2024/02/16 00:45:38;;;;;;;;;;;;;;;;;;5055577;28;19968;-73
2024/02/16 00:48:06;;;;;;;;;;;;;;;;;;5050370;28;20035;-72
2024/02/16 00:50:33;;;;;;;;;;;;;;;;;;5054760;28;19928;-72
2024/02/16 00:53:00;;;;;;;;;;;;;;;;;;5047527;28;20027;-72
2024/02/16 00:55:27;;;;;;;;;;;;;;;;;;5043006;28;19929;-73
2024/02/16 00:57:54;;;;;;;;;;;;;;;;;;5048010;28;20016;-73
2024/02/16 01:00:23;;;;;;;;;;;;;;;;;;5044207;28;20451;-73
2024/02/16 01:02:50;;;;;;;;;;;;;;;;;;5050225;28;19929;-72
2024/02/16 01:05:17;;;;;;;;;;;;;;;;;;5055864;28;20391;-73
2024/02/16 01:07:45;;;;;;;;;;;;;;;;;;5048783;28;19929;-73
2024/02/16 01:10:12;;;;;;;;;;;;;;;;;;5048002;28;20383;-74
2024/02/16 01:12:39;;;;;;;;;;;;;;;;;;5048190;28;19928;-73
2024/02/16 01:15:06;;;;;;;;;;;;;;;;;;5053440;28;19967;-73
2024/02/16 01:17:34;;;;;;;;;;;;;;;;;;5051526;28;20023;-73
2024/02/16 01:20:01;;;;;;;;;;;;;;;;;;5054896;28;20486;-72
2024/02/16 01:22:29;;;;;;;;;;;;;;;;;;5052545;28;20023;-72
2024/02/16 01:24:56;;;;;;;;;;;;;;;;;;5045488;28;19972;-73
2024/02/16 01:27:23;;;;;;;;;;;;;;;;;;5051140;28;20023;-73
2024/02/16 01:29:50;;;;;;;;;;;;;;;;;;5051347;28;19935;-72
2024/02/16 01:32:17;;;;;;;;;;;;;;;;;;5051633;28;20356;-72
2024/02/16 01:34:46;;;;;;;;;;;;;;;;;;5050578;28;19972;-72
2024/02/16 01:37:13;;;;;;;;;;;;;;;;;;5063158;28;20019;-72
2024/02/16 01:39:40;;;;;;;;;;;;;;;;;;5057104;28;20399;-72
2024/02/16 01:42:07;;;;;;;;;;;;;;;;;;5052418;28;19935;-74
2024/02/16 01:44:34;;;;;;;;;;;;;;;;;;5051692;28;19936;-73
2024/02/16 01:47:02;;;;;;;;;;;;;;;;;;5051634;28;19933;-73
2024/02/16 01:49:29;;;;;;;;;;;;;;;;;;5050902;28;19928;-73
2024/02/16 01:51:56;;;;;;;;;;;;;;;;;;5060636;28;20019;-73
2024/02/16 01:54:23;;;;;;;;;;;;;;;;;;5053543;28;20477;-73
2024/02/16 01:56:50;;;;;;;;;;;;;;;;;;5051919;28;20016;-72
2024/02/16 01:59:17;;;;;;;;;;;;;;;;;;5050528;28;20015;-72
2024/02/16 02:01:44;;;;;;;;;;;;;;;;;;5049709;28;20015;-72
2024/02/16 02:04:11;;;;;;;;;;;;;;;;;;5051664;28;19951;-72
2024/02/16 02:06:38;;;;;;;;;;;;;;;;;;5051414;28;20031;-72
2024/02/16 02:09:05;;;;;;;;;;;;;;;;;;5050084;28;19935;-73
2024/02/16 02:11:32;;;;;;;;;;;;;;;;;;5051886;28;20047;-72
2024/02/16 02:13:59;;;;;;;;;;;;;;;;;;5050575;28;20060;-72
2024/02/16 02:16:27;;;;;;;;;;;;;;;;;;5051591;28;19933;-72
2024/02/16 02:18:54;;;;;;;;;;;;;;;;;;5049801;28;19935;-72
2024/02/16 02:21:21;;;;;;;;;;;;;;;;;;5051051;28;20022;-74
2024/02/16 02:23:48;;;;;;;;;;;;;;;;;;5050451;28;20427;-73
2024/02/16 02:26:16;;;;;;;;;;;;;;;;;;5051307;28;20019;-73
2024/02/16 02:28:43;;;;;;;;;;;;;;;;;;5049504;28;19928;-73
2024/02/16 02:31:10;;;;;;;;;;;;;;;;;;5050757;28;20047;-73
2024/02/16 02:33:38;;;;;;;;;;;;;;;;;;5049836;28;19929;-73
2024/02/16 02:36:05;;;;;;;;;;;;;;;;;;5052803;28;20439;-74
2024/02/16 02:38:33;;;;;;;;;;;;;;;;;;5053958;28;20027;-74
2024/02/16 02:41:00;;;;;;;;;;;;;;;;;;5051433;28;20319;-73
2024/02/16 02:43:27;;;;;;;;;;;;;;;;;;5049829;28;20282;-73
2024/02/16 02:45:54;;;;;;;;;;;;;;;;;;5049081;28;20366;-74
2024/02/16 02:48:21;;;;;;;;;;;;;;;;;;5049940;28;19975;-73
2024/02/16 02:50:48;;;;;;;;;;;;;;;;;;5049935;28;20047;-74
2024/02/16 02:53:15;;;;;;;;;;;;;;;;;;5049803;28;20023;-73
2024/02/16 02:55:42;;;;;;;;;;;;;;;;;;5050722;28;19929;-74
2024/02/16 02:58:09;;;;;;;;;;;;;;;;;;5049054;28;20019;-73
2024/02/16 03:00:36;;;;;;;;;;;;;;;;;;5047647;28;20013;-74
2024/02/16 03:03:03;;;;;;;;;;;;;;;;;;5050580;28;20011;-74
2024/02/16 03:05:30;;;;;;;;;;;;;;;;;;5049646;28;20442;-74
2024/02/16 03:07:58;;;;;;;;;;;;;;;;;;5047651;28;19932;-73
2024/02/16 03:10:25;;;;;;;;;;;;;;;;;;5049453;28;20344;-74
2024/02/16 03:12:53;;;;;;;;;;;;;;;;;;5049875;28;19956;-74
2024/02/16 03:15:20;;;;;;;;;;;;;;;;;;5050430;28;19935;-74
2024/02/16 03:17:47;;;;;;;;;;;;;;;;;;5038833;28;19939;-73
2024/02/16 03:20:14;;;;;;;;;;;;;;;;;;5048805;28;20410;-73
2024/02/16 03:22:42;;;;;;;;;;;;;;;;;;5050146;28;19929;-74
2024/02/16 03:25:09;;;;;;;;;;;;;;;;;;5049138;28;19928;-74
2024/02/16 03:27:37;;;;;;;;;;;;;;;;;;5048591;28;19933;-73
2024/02/16 03:30:04;;;;;;;;;;;;;;;;;;5048429;28;19974;-74
2024/02/16 03:32:31;;;;;;;;;;;;;;;;;;5047141;28;19939;-73
2024/02/16 03:34:58;;;;;;;;;;;;;;;;;;5051662;28;20413;-74
2024/02/16 03:37:25;;;;;;;;;;;;;;;;;;5050220;28;20008;-74
2024/02/16 03:39:53;;;;;;;;;;;;;;;;;;5048073;28;20019;-73
2024/02/16 03:42:20;;;;;;;;;;;;;;;;;;5045317;28;20003;-73
2024/02/16 03:44:47;;;;;;;;;;;;;;;;;;5044682;28;20494;-73
2024/02/16 03:47:14;;;;;;;;;;;;;;;;;;5049059;28;19929;-74
2024/02/16 03:49:41;;;;;;;;;;;;;;;;;;5048197;28;20011;-73
2024/02/16 03:52:08;;;;;;;;;;;;;;;;;;5047248;28;20578;-72
2024/02/16 03:54:35;;;;;;;;;;;;;;;;;;5049490;28;20024;-72
2024/02/16 03:57:04;;;;;;;;;;;;;;;;;;5049531;28;19929;-73
2024/02/16 03:59:31;;;;;;;;;;;;;;;;;;5049601;28;19932;-72
2024/02/16 04:01:58;;;;;;;;;;;;;;;;;;5048371;28;19987;-73
2024/02/16 04:04:26;;;;;;;;;;;;;;;;;;5048794;28;20031;-72
2024/02/16 04:06:53;;;;;;;;;;;;;;;;;;5048960;28;19929;-73
2024/02/16 04:09:20;;;;;;;;;;;;;;;;;;5048371;28;20071;-72
2024/02/16 04:11:47;;;;;;;;;;;;;;;;;;5049190;28;19929;-73
2024/02/16 04:14:14;;;;;;;;;;;;;;;;;;5049004;28;20027;-73
2024/02/16 04:16:41;;;;;;;;;;;;;;;;;;5048881;28;19932;-73
2024/02/16 04:19:08;;;;;;;;;;;;;;;;;;5048459;28;20306;-73
2024/02/16 04:21:37;;;;;;;;;;;;;;;;;;5047358;28;20312;-72
2024/02/16 04:24:04;;;;;;;;;;;;;;;;;;5058572;28;20411;-72
2024/02/16 04:26:31;;;;;;;;;;;;;;;;;;5048749;28;20394;-72
2024/02/16 04:28:58;;;;;;;;;;;;;;;;;;5047294;28;19983;-72
2024/02/16 04:31:25;;;;;;;;;;;;;;;;;;5042994;28;20483;-72
2024/02/16 04:33:53;;;;;;;;;;;;;;;;;;5048670;28;19929;-73
2024/02/16 04:36:20;;;;;;;;;;;;;;;;;;5044159;28;19929;-73
2024/02/16 04:38:47;;;;;;;;;;;;;;;;;;5057644;28;20015;-73
2024/02/16 04:41:14;;;;;;;;;;;;;;;;;;5035729;28;19929;-72
2024/02/16 04:43:41;;;;;;;;;;;;;;;;;;5048049;28;19935;-71
2024/02/16 04:46:08;;;;;;;;;;;;;;;;;;5048988;28;19935;-72
2024/02/16 04:48:35;;;;;;;;;;;;;;;;;;5042017;28;20558;-72
2024/02/16 04:51:02;;;;;;;;;;;;;;;;;;5047332;28;20061;-71
2024/02/16 04:53:29;;;;;;;;;;;;;;;;;;5047306;28;20486;-72
2024/02/16 04:55:56;;;;;;;;;;;;;;;;;;5042708;28;19929;-71
2024/02/16 04:58:23;;;;;;;;;;;;;;;;;;5048381;28;20016;-72
2024/02/16 05:00:51;;;;;;;;;;;;;;;;;;5046599;28;19929;-71
2024/02/16 05:03:18;;;;;;;;;;;;;;;;;;5048807;28;19940;-72
2024/02/16 05:05:45;;;;;;;;;;;;;;;;;;5048546;28;20015;-72
2024/02/16 05:08:12;;;;;;;;;;;;;;;;;;5053031;28;20059;-71
2024/02/16 05:10:39;;;;;;;;;;;;;;;;;;5041847;28;20035;-72
2024/02/16 05:13:06;;;;;;;;;;;;;;;;;;5048664;28;20022;-72
2024/02/16 05:15:33;;;;;;;;;;;;;;;;;;5048250;28;20051;-71
2024/02/16 05:18:00;;;;;;;;;;;;;;;;;;5048257;28;19929;-72
2024/02/16 05:20:27;;;;;;;;;;;;;;;;;;5049048;28;19951;-72
2024/02/16 05:22:54;;;;;;;;;;;;;;;;;;5053067;28;20050;-72
2024/02/16 05:25:21;;;;;;;;;;;;;;;;;;5048664;28;19929;-71
2024/02/16 05:27:48;;;;;;;;;;;;;;;;;;5053979;28;20011;-71
2024/02/16 05:30:15;;;;;;;;;;;;;;;;;;5047312;28;19975;-73
2024/02/16 05:32:42;;;;;;;;;;;;;;;;;;5067248;28;19949;-72
2024/02/16 05:35:12;;;;;;;;;;;;;;;;;;5050432;28;19990;-72
2024/02/16 05:37:40;;;;;;;;;;;;;;;;;;5047688;28;20299;-72
2024/02/16 05:40:18;;;;;;;;;;;;;;;;;;5045078;28;19929;-73
2024/02/16 05:42:45;;;;;;;;;;;;;;;;;;5048638;28;19929;-72
2024/02/16 05:45:12;;;;;;;;;;;;;;;;;;5056624;28;19970;-72
2024/02/16 05:47:39;;;;;;;;;;;;;;;;;;5048099;28;19974;-72
2024/02/16 05:50:07;;;;;;;;;;;;;;;;;;5046619;28;20413;-72
2024/02/16 05:52:34;;;;;;;;;;;;;;;;;;5048418;28;19929;-72
2024/02/16 05:55:01;;;;;;;;;;;;;;;;;;5048309;28;19936;-72
2024/02/16 05:57:28;;;;;;;;;;;;;;;;;;5049584;28;20016;-72
2024/02/16 05:59:55;;;;;;;;;;;;;;;;;;5044506;28;20023;-72
2024/02/16 06:02:25;;;;;;;;;;;;;;;;;;5044864;28;20027;-72
2024/02/16 06:04:52;;;;;;;;;;;;;;;;;;5038715;28;20489;-71
2024/02/16 06:07:19;;;;;;;;;;;;;;;;;;5057537;28;19928;-72
2024/02/16 06:09:46;;;;;;;;;;;;;;;;;;5051252;28;19929;-73
2024/02/16 06:12:13;;;;;;;;;;;;;;;;;;5064287;28;20074;-72
2024/02/16 06:14:40;;;;;;;;;;;;;;;;;;5052083;28;19928;-73
2024/02/16 06:17:08;;;;;;;;;;;;;;;;;;5051003;28;20024;-74
2024/02/16 06:19:35;;;;;;;;;;;;;;;;;;5048117;28;19984;-73
2024/02/16 06:22:01;;;;;;;;;;;;;;;;;;5050915;28;20023;-73
2024/02/16 06:24:29;;;;;;;;;;;;;;;;;;5057881;28;20546;-74
2024/02/16 06:26:55;;;;;;;;;;;;;;;;;;5051321;28;19972;-73
2024/02/16 06:29:22;;;;;;;;;;;;;;;;;;5049890;28;20359;-74
2024/02/16 06:31:49;;;;;;;;;;;;;;;;;;5048099;28;20067;-74
2024/02/16 06:34:16;;;;;;;;;;;;;;;;;;5051536;28;19955;-73
2024/02/16 06:36:43;;;;;;;;;;;;;;;;;;5055290;28;19928;-74
2024/02/16 06:39:10;;;;;;;;;;;;;;;;;;5049190;28;20027;-74
2024/02/16 06:41:38;;;;;;;;;;;;;;;;;;5049911;28;20407;-70
2024/02/16 06:44:05;;;;;;;;;;;;;;;;;;5050523;28;20009;-70
2024/02/16 06:46:32;;;;;;;;;;;;;;;;;;5050827;28;20285;-70
2024/02/16 06:48:59;;;;;;;;;;;;;;;;;;5051166;28;19933;-71
2024/02/16 06:51:26;;;;;;;;;;;;;;;;;;5047386;28;20027;-70
2024/02/16 06:53:53;;;;;;;;;;;;;;;;;;5045169;28;20642;-70
2024/02/16 06:56:20;;;;;;;;;;;;;;;;;;5050717;28;20019;-70
2024/02/16 06:58:47;;;;;;;;;;;;;;;;;;5048152;28;19960;-70
2024/02/16 07:01:14;;;;;;;;;;;;;;;;;;5050165;28;19929;-70
2024/02/16 07:03:41;;;;;;;;;;;;;;;;;;5049032;28;19933;-70
2024/02/16 07:06:09;;;;;;;;;;;;;;;;;;5063052;28;20024;-70
2024/02/16 07:08:37;;;;;;;;;;;;;;;;;;5056403;28;19951;-70
2024/02/16 07:11:04;;;;;;;;;;;;;;;;;;5050288;28;19928;-69
2024/02/16 07:13:31;;;;;;;;;;;;;;;;;;5048780;28;20376;-70
2024/02/16 07:15:58;;;;;;;;;;;;;;;;;;5047129;28;20027;-70
2024/02/16 07:18:25;;;;;;;;;;;;;;;;;;5053020;28;19929;-70
2024/02/16 07:20:52;;;;;;;;;;;;;;;;;;5048333;28;20023;-70
2024/02/16 07:23:20;;;;;;;;;;;;;;;;;;5060399;28;19971;-70
2024/02/16 07:25:48;;;;;;;;;;;;;;;;;;5050849;28;20303;-70
2024/02/16 07:28:15;;;;;;;;;;;;;;;;;;5050327;28;20298;-70
2024/02/16 07:30:42;;;;;;;;;;;;;;;;;;5046848;28;20000;-70
2024/02/16 07:33:09;;;;;;;;;;;;;;;;;;5048755;28;20035;-70
2024/02/16 07:35:36;;;;;;;;;;;;;;;;;;5049232;28;20273;-70
2024/02/16 07:38:04;;;;;;;;;;;;;;;;;;5049927;28;20012;-70
2024/02/16 07:40:31;;;;;;;;;;;;;;;;;;5061852;28;19929;-70
2024/02/16 07:42:58;;;;;;;;;;;;;;;;;;5047797;28;20407;-71
2024/02/16 07:45:25;;;;;;;;;;;;;;;;;;5050436;28;19990;-70
2024/02/16 07:47:52;;;;;;;;;;;;;;;;;;5048671;28;20020;-70
2024/02/16 07:50:20;;;;;;;;;;;;;;;;;;5049313;28;19933;-70
2024/02/16 07:52:47;;;;;;;;;;;;;;;;;;5053776;28;19979;-70
2024/02/16 07:55:14;;;;;;;;;;;;;;;;;;5047946;28;20015;-69
2024/02/16 07:57:41;;;;;;;;;;;;;;;;;;5048053;28;20441;-70
2024/02/16 08:00:10;;;;;;;;;;;;;;;;;;5046814;28;20027;-70
2024/02/16 08:02:38;;;;;;;;;;;;;;;;;;5049355;28;19929;-70
2024/02/16 08:05:07;;;;;;;;;;;;;;;;;;5044515;28;19933;-72
2024/02/16 08:07:34;;;;;;;;;;;;;;;;;;5046829;28;19928;-71
2024/02/16 08:10:02;;;;;;;;;;;;;;;;;;5048965;28;19939;-71
2024/02/16 08:12:31;;;;;;;;;;;;;;;;;;5048912;28;19933;-71
2024/02/16 08:14:59;;;;;;;;;;;;;;;;;;5046394;28;20290;-70
2024/02/16 08:17:26;;;;;;;;;;;;;;;;;;5045769;28;19929;-71
2024/02/16 08:19:53;;;;;;;;;;;;;;;;;;5050794;28;20031;-71
2024/02/16 08:22:20;;;;;;;;;;;;;;;;;;5048797;28;19937;-70
2024/02/16 08:24:47;;;;;;;;;;;;;;;;;;5047978;28;20396;-70
2024/02/16 08:27:15;;;;;;;;;;;;;;;;;;5043255;28;19928;-71
2024/02/16 08:29:42;;;;;;;;;;;;;;;;;;5045644;28;20384;-71
2024/02/16 08:32:09;;;;;;;;;;;;;;;;;;5035203;28;19941;-70
2024/02/16 08:34:37;;;;;;;;;;;;;;;;;;5036687;28;19928;-70
2024/02/16 08:37:04;;;;;;;;;;;;;;;;;;5045732;28;19929;-70
2024/02/16 08:39:31;;;;;;;;;;;;;;;;;;5046906;28;19929;-70
2024/02/16 08:41:58;;;;;;;;;;;;;;;;;;5047751;28;20400;-71
2024/02/16 08:44:25;;;;;;;;;;;;;;;;;;5046352;28;19929;-70
2024/02/16 08:46:53;;;;;;;;;;;;;;;;;;5047733;28;19935;-71
2024/02/16 08:49:20;;;;;;;;;;;;;;;;;;5047939;28;19939;-71
2024/02/16 08:51:47;;;;;;;;;;;;;;;;;;5053296;28;19935;-71
2024/02/16 08:54:14;;;;;;;;;;;;;;;;;;5044054;28;20394;-71
2024/02/16 08:56:41;;;;;;;;;;;;;;;;;;5048325;28;19932;-71
2024/02/16 08:59:08;;;;;;;;;;;;;;;;;;5040004;28;20008;-71
2024/02/16 09:01:35;;;;;;;;;;;;;;;;;;5043040;28;19936;-71
2024/02/16 09:04:02;;;;;;;;;;;;;;;;;;5045700;28;19928;-71
2024/02/16 09:06:29;;;;;;;;;;;;;;;;;;5046439;28;20395;-71
2024/02/16 09:08:56;;;;;;;;;;;;;;;;;;5036668;28;19944;-71
2024/02/16 09:11:23;;;;;;;;;;;;;;;;;;5037816;28;19929;-71
2024/02/16 09:13:50;;;;;;;;;;;;;;;;;;5046485;28;19939;-70
2024/02/16 09:16:17;;;;;;;;;;;;;;;;;;5044427;28;19933;-69
2024/02/16 09:18:45;;;;;;;;;;;;;;;;;;5046259;28;20461;-69
2024/02/16 09:21:12;;;;;;;;;;;;;;;;;;5045862;28;19929;-70
2024/02/16 09:23:39;;;;;;;;;;;;;;;;;;5046151;28;20122;-69
2024/02/16 09:26:07;;;;;;;;;;;;;;;;;;5045615;28;19937;-70
2024/02/16 09:28:34;;;;;;;;;;;;;;;;;;5040740;28;19936;-70
2024/02/16 09:31:01;;;;;;;;;;;;;;;;;;5044641;28;19932;-71
2024/02/16 09:33:28;;;;;;;;;;;;;;;;;;5047015;28;19929;-71
2024/02/16 09:35:55;;;;;;;;;;;;;;;;;;5045414;28;20019;-70
2024/02/16 09:38:23;;;;;;;;;;;;;;;;;;5046541;28;20331;-70
2024/02/16 09:40:50;;;;;;;;;;;;;;;;;;5049498;28;19959;-70
2024/02/16 09:43:17;;;;;;;;;;;;;;;;;;5049138;28;19933;-70
2024/02/16 09:45:44;;;;;;;;;;;;;;;;;;5051064;28;20331;-71
2024/02/16 09:48:11;;;;;;;;;;;;;;;;;;5050964;28;19952;-69
2024/02/16 09:50:38;;;;;;;;;;;;;;;;;;5052877;28;20043;-70
2024/02/16 09:53:05;;;;;;;;;;;;;;;;;;5050272;28;19935;-70
2024/02/16 09:55:32;;;;;;;;;;;;;;;;;;5047648;28;20334;-70
2024/02/16 09:57:59;;;;;;;;;;;;;;;;;;5051063;28;20047;-70
2024/02/16 10:00:26;;;;;;;;;;;;;;;;;;5049651;28;19929;-70
2024/02/16 10:02:53;;;;;;;;;;;;;;;;;;5049288;28;19964;-68
2024/02/16 10:05:20;;;;;;;;;;;;;;;;;;5050630;28;19933;-70
2024/02/16 10:07:47;;;;;;;;;;;;;;;;;;5052926;28;19935;-71
2024/02/16 10:10:14;;;;;;;;;;;;;;;;;;5048354;28;19932;-71
2024/02/16 10:12:41;;;;;;;;;;;;;;;;;;5044175;28;19951;-63
2024/02/16 10:15:09;;;;;;;;;;;;;;;;;;5049095;28;20027;-70
2024/02/16 10:17:36;;;;;;;;;;;;;;;;;;5048738;28;19928;-71
2024/02/16 10:20:06;;;;;;;;;;;;;;;;;;5051212;28;20555;-70
2024/02/16 10:22:33;;;;;;;;;;;;;;;;;;5048941;28;19929;-70
2024/02/16 10:25:00;;;;;;;;;;;;;;;;;;5048954;28;19928;-71
2024/02/16 10:27:27;;;;;;;;;;;;;;;;;;5049017;28;19980;-71
2024/02/16 10:29:54;;;;;;;;;;;;;;;;;;5054541;28;19952;-70
2024/02/16 10:32:21;;;;;;;;;;;;;;;;;;5049969;28;19949;-71
2024/02/16 10:34:48;;;;;;;;;;;;;;;;;;5046572;28;19955;-71
2024/02/16 10:37:16;;;;;;;;;;;;;;;;;;5047037;28;19977;-72
2024/02/16 10:39:43;;;;;;;;;;;;;;;;;;5049858;28;20007;-71
2024/02/16 10:42:10;;;;;;;;;;;;;;;;;;5047567;28;20522;-70
2024/02/16 10:44:38;;;;;;;;;;;;;;;;;;5046324;28;20023;-71
2024/02/16 10:47:05;;;;;;;;;;;;;;;;;;5046598;28;20235;-71
2024/02/16 10:49:32;;;;;;;;;;;;;;;;;;5047250;28;19936;-72
2024/02/16 10:51:59;;;;;;;;;;;;;;;;;;5046887;28;19929;-71
2024/02/16 10:54:26;;;;;;;;;;;;;;;;;;5051238;28;20470;-70
2024/02/16 10:56:53;;;;;;;;;;;;;;;;;;5049691;28;19929;-71
2024/02/16 10:59:20;;;;;;;;;;;;;;;;;;5048529;28;19935;-71
2024/02/16 11:01:47;;;;;;;;;;;;;;;;;;5047411;28;20043;-71
2024/02/16 11:04:14;;;;;;;;;;;;;;;;;;5049385;28;19932;-72
2024/02/16 11:06:41;;;;;;;;;;;;;;;;;;5047766;28;19933;-71
2024/02/16 11:09:10;;;;;;;;;;;;;;;;;;5049304;28;19934;-71
2024/02/16 11:11:37;;;;;;;;;;;;;;;;;;5048720;28;19929;-70
2024/02/16 11:14:04;;;;;;;;;;;;;;;;;;5055852;28;20015;-71
2024/02/16 11:16:31;;;;;;;;;;;;;;;;;;5041890;28;19933;-71
2024/02/16 11:18:58;;;;;;;;;;;;;;;;;;5049821;28;19952;-71
2024/02/16 11:21:25;;;;;;;;;;;;;;;;;;5049544;28;20396;-71
2024/02/16 11:23:53;;;;;;;;;;;;;;;;;;5049075;28;19976;-71
2024/02/16 11:26:19;;;;;;;;;;;;;;;;;;5049465;28;19951;-71
2024/02/16 11:28:46;;;;;;;;;;;;;;;;;;5049446;28;20059;-71
2024/02/16 11:31:13;;;;;;;;;;;;;;;;;;5050286;28;19933;-71
2024/02/16 11:33:40;;;;;;;;;;;;;;;;;;5048873;28;20445;-71
2024/02/16 11:36:08;;;;;;;;;;;;;;;;;;5048706;28;19933;-71
2024/02/16 11:38:35;;;;;;;;;;;;;;;;;;5050565;28;19936;-70
2024/02/16 11:41:02;;;;;;;;;;;;;;;;;;5044179;28;19928;-70
2024/02/16 11:43:29;;;;;;;;;;;;;;;;;;5044150;28;20475;-69
2024/02/16 11:45:56;;;;;;;;;;;;;;;;;;5047506;28;20015;-71
2024/02/16 11:48:23;;;;;;;;;;;;;;;;;;5048585;28;20407;-68
2024/02/16 11:50:50;;;;;;;;;;;;;;;;;;5048286;28;19990;-68
2024/02/16 11:53:17;;;;;;;;;;;;;;;;;;5046504;28;19928;-68
2024/02/16 11:55:44;;;;;;;;;;;;;;;;;;5048509;28;20354;-69
2024/02/16 11:58:11;;;;;;;;;;;;;;;;;;5048240;28;20027;-68
2024/02/16 12:00:38;;;;;;;;;;;;;;;;;;5049212;28;19997;-69
2024/02/16 12:03:07;;;;;;;;;;;;;;;;;;5056002;28;20027;-68
2024/02/16 12:05:34;;;;;;;;;;;;;;;;;;5047341;28;20403;-69
2024/02/16 12:08:01;;;;;;;;;;;;;;;;;;5041406;28;19985;-68
2024/02/16 12:10:28;;;;;;;;;;;;;;;;;;5049325;28;20399;-69
2024/02/16 12:12:55;;;;;;;;;;;;;;;;;;5047546;28;19929;-70
2024/02/16 12:15:22;;;;;;;;;;;;;;;;;;5047486;28;20401;-69
2024/02/16 12:17:49;;;;;;;;;;;;;;;;;;5046652;28;19928;-69
2024/02/16 12:20:16;;;;;;;;;;;;;;;;;;5047277;28;20438;-68
2024/02/16 12:22:43;;;;;;;;;;;;;;;;;;5049239;28;19929;-69
2024/02/16 12:25:10;;;;;;;;;;;;;;;;;;5042525;28;20414;-69
2024/02/16 12:27:37;;;;;;;;;;;;;;;;;;5040537;28;19937;-69
2024/02/16 12:30:04;;;;;;;;;;;;;;;;;;5041414;28;20023;-69
2024/02/16 12:32:31;;;;;;;;;;;;;;;;;;5044958;28;19933;-69
2024/02/16 12:34:58;;;;;;;;;;;;;;;;;;5038839;28;20020;-69
2024/02/16 12:37:25;;;;;;;;;;;;;;;;;;5042521;28;19933;-68
2024/02/16 12:39:52;;;;;;;;;;;;;;;;;;5043413;28;19975;-67
2024/02/16 12:42:19;;;;;;;;;;;;;;;;;;5046283;28;19948;-68
2024/02/16 12:44:46;;;;;;;;;;;;;;;;;;5048107;28;20136;-68
2024/02/16 12:47:13;;;;;;;;;;;;;;;;;;5044133;28;20020;-68
2024/02/16 12:49:40;;;;;;;;;;;;;;;;;;5043584;28;19933;-68
2024/02/16 12:52:07;;;;;;;;;;;;;;;;;;5043660;28;20483;-68
2024/02/16 12:54:34;;;;;;;;;;;;;;;;;;5040764;28;19933;-71
2024/02/16 12:57:01;;;;;;;;;;;;;;;;;;5044076;28;20036;-70
2024/02/16 12:59:28;;;;;;;;;;;;;;;;;;5041982;28;19936;-71
2024/02/16 13:01:56;;;;;;;;;;;;;;;;;;5042390;28;19929;-70
2024/02/16 13:04:23;;;;;;;;;;;;;;;;;;5039720;28;19928;-69
2024/02/16 13:06:52;;;;;;;;;;;;;;;;;;5033277;28;19935;-70
2024/02/16 13:09:19;;;;;;;;;;;;;;;;;;5032201;28;20385;-71
2024/02/16 13:11:53;;;;;;;;;;;;;;;;;;5030391;28;20391;-71
2024/02/16 13:14:20;;;;;;;;;;;;;;;;;;5040697;28;19929;-71
2024/02/16 13:16:48;;;;;;;;;;;;;;;;;;5045314;28;19968;-71
2024/02/16 13:19:17;;;;;;;;;;;;;;;;;;5045302;28;19933;-70
2024/02/16 13:21:44;;;;;;;;;;;;;;;;;;5044219;28;19984;-71
2024/02/16 13:24:11;;;;;;;;;;;;;;;;;;5040757;28;19929;-71
2024/02/16 13:26:38;;;;;;;;;;;;;;;;;;5046444;28;20032;-71
2024/02/16 13:29:05;;;;;;;;;;;;;;;;;;5043248;28;20022;-71
2024/02/16 13:31:33;;;;;;;;;;;;;;;;;;5045960;28;19933;-71
2024/02/16 13:34:00;;;;;;;;;;;;;;;;;;5047715;28;19929;-71
2024/02/16 13:36:27;;;;;;;;;;;;;;;;;;5048704;28;20352;-70
2024/02/16 13:38:54;;;;;;;;;;;;;;;;;;5048319;28;19929;-71
2024/02/16 13:41:21;;;;;;;;;;;;;;;;;;5047141;28;20094;-71
2024/02/16 13:43:48;;;;;;;;;;;;;;;;;;5050062;28;19968;-71
2024/02/16 13:46:15;;;;;;;;;;;;;;;;;;5047789;28;20028;-71
2024/02/16 13:48:42;;;;;;;;;;;;;;;;;;5048451;28;19943;-71
2024/02/16 13:51:09;;;;;;;;;;;;;;;;;;5048245;28;19933;-71
2024/02/16 13:53:36;;;;;;;;;;;;;;;;;;5059069;28;19956;-71
2024/02/16 13:56:04;;;;;;;;;;;;;;;;;;5048802;28;19939;-71
2024/02/16 13:58:31;;;;;;;;;;;;;;;;;;5048308;28;19936;-71
2024/02/16 14:00:58;;;;;;;;;;;;;;;;;;5049776;28;19933;-71
2024/02/16 14:03:25;;;;;;;;;;;;;;;;;;5051242;28;20027;-70
2024/02/16 14:05:52;;;;;;;;;;;;;;;;;;5041911;28;19929;-69
2024/02/16 14:08:19;;;;;;;;;;;;;;;;;;5049038;28;19935;-73
2024/02/16 14:10:46;;;;;;;;;;;;;;;;;;5045320;28;19933;-72
2024/02/16 14:13:13;;;;;;;;;;;;;;;;;;5055795;28;20031;-74
2024/02/16 14:15:40;;;;;;;;;;;;;;;;;;5054334;28;20027;-73
2024/02/16 14:18:07;;;;;;;;;;;;;;;;;;5044333;28;20024;-73
2024/02/16 14:20:34;;;;;;;;;;;;;;;;;;5044239;28;19958;-72
2024/02/16 14:23:02;;;;;;;;;;;;;;;;;;5049087;28;19945;-72
2024/02/16 14:25:29;;;;;;;;;;;;;;;;;;5048387;28;19933;-72
2024/02/16 14:27:57;;;;;;;;;;;;;;;;;;5050598;28;20322;-72
2024/02/16 14:30:24;;;;;;;;;;;;;;;;;;5047015;28;19928;-72
2024/02/16 14:32:52;;;;;;;;;;;;;;;;;;5042015;28;19929;-72
2024/02/16 14:35:19;;;;;;;;;;;;;;;;;;5038600;28;20369;-72
2024/02/16 14:37:46;;;;;;;;;;;;;;;;;;5042447;28;20339;-71
2024/02/16 14:40:13;;;;;;;;;;;;;;;;;;5036021;28;19933;-71
2024/02/16 14:42:40;;;;;;;;;;;;;;;;;;5041109;28;19968;-71
2024/02/16 14:45:09;;;;;;;;;;;;;;;;;;5044695;28;19948;-71
2024/02/16 14:47:36;;;;;;;;;;;;;;;;;;5042416;28;20381;-71
2024/02/16 14:50:03;;;;;;;;;;;;;;;;;;5044261;28;19991;-71
2024/02/16 14:52:30;;;;;;;;;;;;;;;;;;5046794;28;19933;-71
2024/02/16 14:54:57;;;;;;;;;;;;;;;;;;5045627;28;20016;-72
2024/02/16 14:57:25;;;;;;;;;;;;;;;;;;5042960;28;19975;-69
2024/02/16 14:59:55;;;;;;;;;;;;;;;;;;5042239;28;20381;-70
2024/02/16 15:02:22;;;;;;;;;;;;;;;;;;5036751;28;20455;-70
2024/02/16 15:04:49;;;;;;;;;;;;;;;;;;5038043;28;20020;-70
2024/02/16 15:07:16;;;;;;;;;;;;;;;;;;5035536;28;20462;-70
2024/02/16 15:09:43;;;;;;;;;;;;;;;;;;5039138;28;19932;-71
2024/02/16 15:12:10;;;;;;;;;;;;;;;;;;5038131;28;19933;-72
2024/02/16 15:14:37;;;;;;;;;;;;;;;;;;5041645;28;20040;-70
2024/02/16 15:17:05;;;;;;;;;;;;;;;;;;5040604;28;19932;-70
2024/02/16 15:19:32;;;;;;;;;;;;;;;;;;5042144;28;19932;-71
2024/02/16 15:21:59;;;;;;;;;;;;;;;;;;5046169;28;19928;-71
2024/02/16 15:24:26;;;;;;;;;;;;;;;;;;5051991;28;19928;-71
2024/02/16 15:26:53;;;;;;;;;;;;;;;;;;5049965;28;20447;-69
2024/02/16 15:29:20;;;;;;;;;;;;;;;;;;5050793;28;19929;-68
2024/02/16 15:31:48;;;;;;;;;;;;;;;;;;5041607;28;19935;-67
2024/02/16 15:34:15;;;;;;;;;;;;;;;;;;5041764;28;19932;-67
2024/02/16 15:36:43;;;;;;;;;;;;;;;;;;5043230;28;20688;-68
2024/02/16 15:39:10;;;;;;;;;;;;;;;;;;5045481;28;19935;-68
2024/02/16 15:41:37;;;;;;;;;;;;;;;;;;5041180;28;19928;-68
2024/02/16 15:44:04;;;;;;;;;;;;;;;;;;5040552;28;20510;-71
2024/02/16 15:46:31;;;;;;;;;;;;;;;;;;5044248;28;19957;-71
2024/02/16 15:48:58;;;;;;;;;;;;;;;;;;5044504;28;19975;-71
2024/02/16 15:51:25;;;;;;;;;;;;;;;;;;5041302;28;20423;-71
2024/02/16 15:53:52;;;;;;;;;;;;;;;;;;5046315;28;20389;-71
2024/02/16 15:56:19;;;;;;;;;;;;;;;;;;5046967;28;20330;-71
2024/02/16 15:58:46;;;;;;;;;;;;;;;;;;5045261;28;20015;-71
2024/02/16 16:01:13;;;;;;;;;;;;;;;;;;5045583;28;20042;-72
2024/02/16 16:03:40;;;;;;;;;;;;;;;;;;5042849;28;19935;-71
2024/02/16 16:06:07;;;;;;;;;;;;;;;;;;5048603;28;20478;-72
2024/02/16 16:08:34;;;;;;;;;;;;;;;;;;5041228;28;19941;-72
2024/02/16 16:11:02;;;;;;;;;;;;;;;;;;5045214;28;20387;-73
2024/02/16 16:13:30;;;;;;;;;;;;;;;;;;5046277;28;19933;-73
2024/02/16 16:15:58;;;;;;;;;;;;;;;;;;5047702;28;20349;-71
2024/02/16 16:18:25;;;;;;;;;;;;;;;;;;5048047;28;19933;-70
2024/02/16 16:20:52;;;;;;;;;;;;;;;;;;5047616;28;20359;-71
2024/02/16 16:23:19;;;;;;;;;;;;;;;;;;5045437;28;19941;-72
2024/02/16 16:25:46;;;;;;;;;;;;;;;;;;5045332;28;19939;-72
2024/02/16 16:28:13;;;;;;;;;;;;;;;;;;5050368;28;20391;-71
2024/02/16 16:30:40;;;;;;;;;;;;;;;;;;5047268;28;20481;-71
2024/02/16 16:33:07;;;;;;;;;;;;;;;;;;5045582;28;19951;-71
2024/02/16 16:35:34;;;;;;;;;;;;;;;;;;5046267;28;20113;-70
2024/02/16 16:38:01;;;;;;;;;;;;;;;;;;5047985;28;19935;-70
2024/02/16 16:40:28;;;;;;;;;;;;;;;;;;5046384;28;20023;-71
2024/02/16 16:42:55;;;;;;;;;;;;;;;;;;5048583;28;19929;-70
2024/02/16 16:45:23;;;;;;;;;;;;;;;;;;5038883;28;20015;-70